sensor_id;sensor_type;location;lat;lon;timestamp;P1;durP1;ratioP1;P2;durP2;ratioP2
18072;SDS011;9161;47.348;9.648;2024-03-06T00:04:28;2.47;;;0.90;;
18072;SDS011;9161;47.348;9.648;2024-03-06T00:09:32;2.00;;;0.87;;
18072;SDS011;9161;47.348;9.648;2024-03-06T00:14:34;1.77;;;0.87;;
18072;SDS011;9161;47.348;9.648;2024-03-06T00:19:37;1.73;;;1.00;;
18072;SDS011;9161;47.348;9.648;2024-03-06T00:24:40;1.90;;;0.80;;
18072;SDS011;9161;47.348;9.648;2024-03-06T00:29:43;3.07;;;1.03;;
18072;SDS011;9161;47.348;9.648;2024-03-06T00:34:45;1.77;;;1.00;;
18072;SDS011;9161;47.348;9.648;2024-03-06T00:39:49;0.73;;;0.53;;
18072;SDS011;9161;47.348;9.648;2024-03-06T00:44:51;3.03;;;0.90;;
18072;SDS011;9161;47.348;9.648;2024-03-06T00:49:53;2.20;;;1.00;;
18072;SDS011;9161;47.348;9.648;2024-03-06T00:54:57;2.07;;;1.00;;
18072;SDS011;9161;47.348;9.648;2024-03-06T01:00:00;3.07;;;1.03;;
18072;SDS011;9161;47.348;9.648;2024-03-06T01:05:06;2.13;;;0.90;;
18072;SDS011;9161;47.348;9.648;2024-03-06T01:10:10;4.20;;;1.47;;
18072;SDS011;9161;47.348;9.648;2024-03-06T01:15:13;1.90;;;1.10;;
18072;SDS011;9161;47.348;9.648;2024-03-06T01:20:15;3.70;;;1.57;;
18072;SDS011;9161;47.348;9.648;2024-03-06T01:25:20;3.03;;;1.33;;
18072;SDS011;9161;47.348;9.648;2024-03-06T01:30:22;4.53;;;1.90;;
18072;SDS011;9161;47.348;9.648;2024-03-06T01:35:24;2.40;;;1.40;;
18072;SDS011;9161;47.348;9.648;2024-03-06T01:40:27;2.83;;;1.10;;
18072;SDS011;9161;47.348;9.648;2024-03-06T01:45:30;1.93;;;1.17;;
18072;SDS011;9161;47.348;9.648;2024-03-06T01:50:33;1.60;;;1.00;;
18072;SDS011;9161;47.348;9.648;2024-03-06T01:55:36;2.73;;;1.23;;
18072;SDS011;9161;47.348;9.648;2024-03-06T02:00:39;4.13;;;1.53;;
18072;SDS011;9161;47.348;9.648;2024-03-06T02:05:41;2.37;;;1.30;;
18072;SDS011;9161;47.348;9.648;2024-03-06T02:10:45;2.73;;;1.43;;
18072;SDS011;9161;47.348;9.648;2024-03-06T02:15:48;1.87;;;1.30;;
18072;SDS011;9161;47.348;9.648;2024-03-06T02:20:51;2.47;;;1.30;;
18072;SDS011;9161;47.348;9.648;2024-03-06T02:25:54;2.73;;;1.53;;
18072;SDS011;9161;47.348;9.648;2024-03-06T02:30:56;1.00;;;0.67;;
18072;SDS011;9161;47.348;9.648;2024-03-06T02:36:00;1.37;;;0.70;;
18072;SDS011;9161;47.348;9.648;2024-03-06T02:41:03;0.90;;;0.70;;
18072;SDS011;9161;47.348;9.648;2024-03-06T02:46:06;1.67;;;0.53;;
18072;SDS011;9161;47.348;9.648;2024-03-06T02:51:10;0.67;;;0.27;;
18072;SDS011;9161;47.348;9.648;2024-03-06T02:56:15;3.43;;;0.60;;
18072;SDS011;9161;47.348;9.648;2024-03-06T03:01:17;1.73;;;0.70;;
18072;SDS011;9161;47.348;9.648;2024-03-06T03:06:21;1.77;;;0.70;;
18072;SDS011;9161;47.348;9.648;2024-03-06T03:11:23;3.70;;;0.90;;
18072;SDS011;9161;47.348;9.648;2024-03-06T03:16:25;1.60;;;1.10;;
18072;SDS011;9161;47.348;9.648;2024-03-06T03:21:29;1.23;;;0.67;;
18072;SDS011;9161;47.348;9.648;2024-03-06T03:26:32;1.80;;;1.07;;
18072;SDS011;9161;47.348;9.648;2024-03-06T03:31:34;1.50;;;0.83;;
18072;SDS011;9161;47.348;9.648;2024-03-06T03:36:43;0.67;;;0.53;;
18072;SDS011;9161;47.348;9.648;2024-03-06T03:41:45;1.67;;;0.80;;
18072;SDS011;9161;47.348;9.648;2024-03-06T03:46:48;0.90;;;0.80;;
18072;SDS011;9161;47.348;9.648;2024-03-06T03:51:52;1.37;;;0.60;;
18072;SDS011;9161;47.348;9.648;2024-03-06T03:56:55;1.10;;;0.90;;
18072;SDS011;9161;47.348;9.648;2024-03-06T04:01:59;0.90;;;0.67;;
18072;SDS011;9161;47.348;9.648;2024-03-06T04:07:03;0.73;;;0.50;;
18072;SDS011;9161;47.348;9.648;2024-03-06T04:12:05;0.57;;;0.30;;
18072;SDS011;9161;47.348;9.648;2024-03-06T04:17:07;0.70;;;0.27;;
18072;SDS011;9161;47.348;9.648;2024-03-06T04:22:11;0.63;;;0.40;;
18072;SDS011;9161;47.348;9.648;2024-03-06T04:27:14;0.60;;;0.30;;
18072;SDS011;9161;47.348;9.648;2024-03-06T04:32:17;0.30;;;0.20;;
18072;SDS011;9161;47.348;9.648;2024-03-06T04:37:20;0.10;;;0.00;;
18072;SDS011;9161;47.348;9.648;2024-03-06T04:42:22;0.70;;;0.20;;
18072;SDS011;9161;47.348;9.648;2024-03-06T04:47:24;0.20;;;0.10;;
18072;SDS011;9161;47.348;9.648;2024-03-06T04:52:31;0.57;;;0.20;;
18072;SDS011;9161;47.348;9.648;2024-03-06T04:57:34;0.20;;;0.20;;
18072;SDS011;9161;47.348;9.648;2024-03-06T05:02:36;0.60;;;0.30;;
18072;SDS011;9161;47.348;9.648;2024-03-06T05:07:58;0.50;;;0.30;;
18072;SDS011;9161;47.348;9.648;2024-03-06T05:13:17;0.83;;;0.40;;
18072;SDS011;9161;47.348;9.648;2024-03-06T05:18:37;0.97;;;0.50;;
18072;SDS011;9161;47.348;9.648;2024-03-06T05:23:58;3.17;;;0.60;;
18072;SDS011;9161;47.348;9.648;2024-03-06T05:29:18;1.67;;;0.60;;
18072;SDS011;9161;47.348;9.648;2024-03-06T05:34:37;2.50;;;0.90;;
18072;SDS011;9161;47.348;9.648;2024-03-06T05:39:59;1.23;;;0.60;;
18072;SDS011;9161;47.348;9.648;2024-03-06T05:45:18;1.17;;;0.60;;
18072;SDS011;9161;47.348;9.648;2024-03-06T05:50:39;1.40;;;0.70;;
18072;SDS011;9161;47.348;9.648;2024-03-06T05:56:00;1.93;;;0.90;;
18072;SDS011;9161;47.348;9.648;2024-03-06T06:01:20;1.93;;;0.83;;
18072;SDS011;9161;47.348;9.648;2024-03-06T06:06:23;1.60;;;0.60;;
18072;SDS011;9161;47.348;9.648;2024-03-06T06:11:26;0.73;;;0.50;;
18072;SDS011;9161;47.348;9.648;2024-03-06T06:16:34;0.77;;;0.50;;
18072;SDS011;9161;47.348;9.648;2024-03-06T06:21:36;0.67;;;0.40;;
18072;SDS011;9161;47.348;9.648;2024-03-06T06:26:40;1.63;;;1.00;;
18072;SDS011;9161;47.348;9.648;2024-03-06T06:31:43;1.60;;;0.70;;
18072;SDS011;9161;47.348;9.648;2024-03-06T06:36:45;1.07;;;0.53;;
18072;SDS011;9161;47.348;9.648;2024-03-06T06:41:49;1.47;;;0.80;;
18072;SDS011;9161;47.348;9.648;2024-03-06T06:46:51;1.17;;;0.50;;
18072;SDS011;9161;47.348;9.648;2024-03-06T06:51:53;0.67;;;0.50;;
18072;SDS011;9161;47.348;9.648;2024-03-06T06:56:57;2.73;;;0.80;;
18072;SDS011;9161;47.348;9.648;2024-03-06T07:01:59;1.30;;;0.70;;
18072;SDS011;9161;47.348;9.648;2024-03-06T07:07:02;2.30;;;0.67;;
18072;SDS011;9161;47.348;9.648;2024-03-06T07:12:06;3.40;;;1.07;;
18072;SDS011;9161;47.348;9.648;2024-03-06T07:17:09;1.67;;;0.90;;
18072;SDS011;9161;47.348;9.648;2024-03-06T07:22:11;1.73;;;0.87;;
18072;SDS011;9161;47.348;9.648;2024-03-06T07:27:15;1.00;;;0.77;;
18072;SDS011;9161;47.348;9.648;2024-03-06T07:32:18;2.00;;;0.80;;
18072;SDS011;9161;47.348;9.648;2024-03-06T07:37:21;0.87;;;0.43;;
18072;SDS011;9161;47.348;9.648;2024-03-06T07:42:24;0.60;;;0.50;;
18072;SDS011;9161;47.348;9.648;2024-03-06T07:47:26;1.70;;;0.70;;
18072;SDS011;9161;47.348;9.648;2024-03-06T07:52:29;2.57;;;0.70;;
18072;SDS011;9161;47.348;9.648;2024-03-06T07:57:33;1.23;;;0.70;;
18072;SDS011;9161;47.348;9.648;2024-03-06T08:02:36;2.57;;;0.57;;
18072;SDS011;9161;47.348;9.648;2024-03-06T08:07:39;0.57;;;0.30;;
18072;SDS011;9161;47.348;9.648;2024-03-06T08:12:44;0.67;;;0.37;;
18072;SDS011;9161;47.348;9.648;2024-03-06T08:17:48;0.33;;;0.30;;
18072;SDS011;9161;47.348;9.648;2024-03-06T08:22:52;1.40;;;0.60;;
18072;SDS011;9161;47.348;9.648;2024-03-06T08:27:56;1.20;;;0.40;;
18072;SDS011;9161;47.348;9.648;2024-03-06T08:32:59;0.77;;;0.40;;
18072;SDS011;9161;47.348;9.648;2024-03-06T08:38:02;0.80;;;0.30;;
18072;SDS011;9161;47.348;9.648;2024-03-06T08:43:06;0.60;;;0.60;;
18072;SDS011;9161;47.348;9.648;2024-03-06T08:48:09;1.90;;;0.90;;
18072;SDS011;9161;47.348;9.648;2024-03-06T08:53:11;3.47;;;1.17;;
18072;SDS011;9161;47.348;9.648;2024-03-06T08:58:17;3.30;;;1.50;;
18072;SDS011;9161;47.348;9.648;2024-03-06T09:03:21;1.70;;;0.90;;
18072;SDS011;9161;47.348;9.648;2024-03-06T09:08:23;2.30;;;1.17;;
18072;SDS011;9161;47.348;9.648;2024-03-06T09:13:27;1.10;;;0.67;;
18072;SDS011;9161;47.348;9.648;2024-03-06T09:18:29;0.67;;;0.50;;
18072;SDS011;9161;47.348;9.648;2024-03-06T09:23:31;0.43;;;0.33;;
18072;SDS011;9161;47.348;9.648;2024-03-06T09:28:38;0.80;;;0.63;;
18072;SDS011;9161;47.348;9.648;2024-03-06T09:33:40;0.60;;;0.50;;
18072;SDS011;9161;47.348;9.648;2024-03-06T09:38:42;1.07;;;0.70;;
18072;SDS011;9161;47.348;9.648;2024-03-06T09:43:46;1.23;;;0.60;;
18072;SDS011;9161;47.348;9.648;2024-03-06T09:48:49;0.50;;;0.33;;
18072;SDS011;9161;47.348;9.648;2024-03-06T09:53:53;0.60;;;0.30;;
18072;SDS011;9161;47.348;9.648;2024-03-06T09:58:57;0.90;;;0.20;;
18072;SDS011;9161;47.348;9.648;2024-03-06T10:03:59;0.80;;;0.50;;
18072;SDS011;9161;47.348;9.648;2024-03-06T10:09:18;0.87;;;0.33;;
18072;SDS011;9161;47.348;9.648;2024-03-06T10:14:22;0.80;;;0.40;;
18072;SDS011;9161;47.348;9.648;2024-03-06T10:19:25;0.30;;;0.30;;
18072;SDS011;9161;47.348;9.648;2024-03-06T10:24:29;0.83;;;0.30;;
18072;SDS011;9161;47.348;9.648;2024-03-06T10:29:33;0.47;;;0.30;;
18072;SDS011;9161;47.348;9.648;2024-03-06T10:34:36;0.83;;;0.20;;
18072;SDS011;9161;47.348;9.648;2024-03-06T10:39:42;0.40;;;0.20;;
18072;SDS011;9161;47.348;9.648;2024-03-06T10:44:47;0.40;;;0.30;;
18072;SDS011;9161;47.348;9.648;2024-03-06T10:49:52;0.47;;;0.27;;
18072;SDS011;9161;47.348;9.648;2024-03-06T10:54:55;0.90;;;0.40;;
18072;SDS011;9161;47.348;9.648;2024-03-06T11:00:03;0.97;;;0.50;;
18072;SDS011;9161;47.348;9.648;2024-03-06T11:05:07;0.50;;;0.40;;
18072;SDS011;9161;47.348;9.648;2024-03-06T11:10:09;0.40;;;0.40;;
18072;SDS011;9161;47.348;9.648;2024-03-06T11:15:18;0.33;;;0.20;;
18072;SDS011;9161;47.348;9.648;2024-03-06T11:20:22;0.97;;;0.50;;
18072;SDS011;9161;47.348;9.648;2024-03-06T11:31:06;1.47;;;0.60;;
18072;SDS011;9161;47.348;9.648;2024-03-06T11:36:15;1.53;;;0.50;;
18072;SDS011;9161;47.348;9.648;2024-03-06T11:41:24;0.57;;;0.40;;
18072;SDS011;9161;47.348;9.648;2024-03-06T11:46:42;0.67;;;0.60;;
18072;SDS011;9161;47.348;9.648;2024-03-06T11:51:44;0.57;;;0.40;;
18072;SDS011;9161;47.348;9.648;2024-03-06T11:56:47;2.73;;;0.40;;
18072;SDS011;9161;47.348;9.648;2024-03-06T12:01:52;0.57;;;0.30;;
18072;SDS011;9161;47.348;9.648;2024-03-06T12:06:56;0.40;;;0.20;;
18072;SDS011;9161;47.348;9.648;2024-03-06T12:11:59;1.83;;;0.70;;
18072;SDS011;9161;47.348;9.648;2024-03-06T12:17:04;1.30;;;0.40;;
18072;SDS011;9161;47.348;9.648;2024-03-06T12:22:10;1.33;;;0.40;;
18072;SDS011;9161;47.348;9.648;2024-03-06T12:27:12;0.30;;;0.30;;
18072;SDS011;9161;47.348;9.648;2024-03-06T12:32:19;1.13;;;0.30;;
18072;SDS011;9161;47.348;9.648;2024-03-06T12:37:30;0.50;;;0.30;;
18072;SDS011;9161;47.348;9.648;2024-03-06T12:42:34;2.93;;;0.30;;
18072;SDS011;9161;47.348;9.648;2024-03-06T12:47:38;0.60;;;0.40;;
18072;SDS011;9161;47.348;9.648;2024-03-06T12:52:42;0.30;;;0.27;;
18072;SDS011;9161;47.348;9.648;2024-03-06T12:57:46;0.20;;;0.20;;
18072;SDS011;9161;47.348;9.648;2024-03-06T13:02:51;0.20;;;0.20;;
18072;SDS011;9161;47.348;9.648;2024-03-06T13:07:54;0.40;;;0.20;;
18072;SDS011;9161;47.348;9.648;2024-03-06T13:12:56;1.00;;;0.30;;
18072;SDS011;9161;47.348;9.648;2024-03-06T13:18:00;0.70;;;0.33;;
18072;SDS011;9161;47.348;9.648;2024-03-06T13:23:03;0.93;;;0.30;;
18072;SDS011;9161;47.348;9.648;2024-03-06T13:28:06;0.47;;;0.30;;
18072;SDS011;9161;47.348;9.648;2024-03-06T13:33:10;0.73;;;0.30;;
18072;SDS011;9161;47.348;9.648;2024-03-06T13:38:12;0.83;;;0.40;;
18072;SDS011;9161;47.348;9.648;2024-03-06T13:43:15;0.60;;;0.30;;
18072;SDS011;9161;47.348;9.648;2024-03-06T13:48:18;0.63;;;0.20;;
18072;SDS011;9161;47.348;9.648;2024-03-06T13:53:22;0.87;;;0.50;;
18072;SDS011;9161;47.348;9.648;2024-03-06T13:58:25;0.50;;;0.23;;
18072;SDS011;9161;47.348;9.648;2024-03-06T14:03:28;0.60;;;0.10;;
18072;SDS011;9161;47.348;9.648;2024-03-06T14:08:33;0.20;;;0.10;;
18072;SDS011;9161;47.348;9.648;2024-03-06T14:13:38;1.33;;;0.30;;
18072;SDS011;9161;47.348;9.648;2024-03-06T14:18:42;0.60;;;0.20;;
18072;SDS011;9161;47.348;9.648;2024-03-06T14:23:44;0.20;;;0.20;;
18072;SDS011;9161;47.348;9.648;2024-03-06T14:28:46;0.13;;;0.13;;
18072;SDS011;9161;47.348;9.648;2024-03-06T14:33:50;0.47;;;0.13;;
18072;SDS011;9161;47.348;9.648;2024-03-06T14:38:54;0.73;;;0.30;;
18072;SDS011;9161;47.348;9.648;2024-03-06T14:43:56;0.93;;;0.40;;
18072;SDS011;9161;47.348;9.648;2024-03-06T14:49:00;1.23;;;0.23;;
18072;SDS011;9161;47.348;9.648;2024-03-06T14:54:03;0.63;;;0.30;;
18072;SDS011;9161;47.348;9.648;2024-03-06T14:59:05;0.20;;;0.20;;
18072;SDS011;9161;47.348;9.648;2024-03-06T15:04:08;0.70;;;0.37;;
18072;SDS011;9161;47.348;9.648;2024-03-06T15:09:11;2.37;;;0.30;;
18072;SDS011;9161;47.348;9.648;2024-03-06T15:14:22;0.50;;;0.20;;
18072;SDS011;9161;47.348;9.648;2024-03-06T15:19:26;1.37;;;0.23;;
18072;SDS011;9161;47.348;9.648;2024-03-06T15:24:28;0.37;;;0.23;;
18072;SDS011;9161;47.348;9.648;2024-03-06T15:29:30;0.40;;;0.30;;
18072;SDS011;9161;47.348;9.648;2024-03-06T15:34:34;1.63;;;0.40;;
18072;SDS011;9161;47.348;9.648;2024-03-06T15:39:36;0.37;;;0.30;;
18072;SDS011;9161;47.348;9.648;2024-03-06T15:44:39;0.83;;;0.50;;
18072;SDS011;9161;47.348;9.648;2024-03-06T15:49:43;4.63;;;0.60;;
18072;SDS011;9161;47.348;9.648;2024-03-06T15:54:47;1.17;;;0.40;;
18072;SDS011;9161;47.348;9.648;2024-03-06T15:59:52;0.90;;;0.40;;
18072;SDS011;9161;47.348;9.648;2024-03-06T16:04:56;0.83;;;0.27;;
18072;SDS011;9161;47.348;9.648;2024-03-06T16:09:59;0.80;;;0.50;;
18072;SDS011;9161;47.348;9.648;2024-03-06T16:15:02;1.10;;;0.60;;
18072;SDS011;9161;47.348;9.648;2024-03-06T16:20:07;1.47;;;0.50;;
18072;SDS011;9161;47.348;9.648;2024-03-06T16:25:11;1.77;;;0.70;;
18072;SDS011;9161;47.348;9.648;2024-03-06T16:30:13;0.77;;;0.70;;
18072;SDS011;9161;47.348;9.648;2024-03-06T16:35:17;4.10;;;1.70;;
18072;SDS011;9161;47.348;9.648;2024-03-06T16:40:20;2.37;;;1.30;;
18072;SDS011;9161;47.348;9.648;2024-03-06T16:45:23;1.53;;;0.90;;
18072;SDS011;9161;47.348;9.648;2024-03-06T16:50:26;1.53;;;0.80;;
18072;SDS011;9161;47.348;9.648;2024-03-06T16:55:28;1.43;;;0.80;;
18072;SDS011;9161;47.348;9.648;2024-03-06T17:00:31;1.83;;;1.07;;
18072;SDS011;9161;47.348;9.648;2024-03-06T17:05:35;3.67;;;1.10;;
18072;SDS011;9161;47.348;9.648;2024-03-06T17:10:37;2.07;;;1.07;;
18072;SDS011;9161;47.348;9.648;2024-03-06T17:15:42;0.87;;;0.50;;
18072;SDS011;9161;47.348;9.648;2024-03-06T17:20:47;3.83;;;1.00;;
18072;SDS011;9161;47.348;9.648;2024-03-06T17:25:50;2.60;;;1.03;;
18072;SDS011;9161;47.348;9.648;2024-03-06T17:30:53;2.10;;;1.00;;
18072;SDS011;9161;47.348;9.648;2024-03-06T17:35:57;2.17;;;0.67;;
18072;SDS011;9161;47.348;9.648;2024-03-06T17:40:59;1.70;;;0.97;;
18072;SDS011;9161;47.348;9.648;2024-03-06T17:46:02;2.00;;;1.03;;
18072;SDS011;9161;47.348;9.648;2024-03-06T17:51:08;2.43;;;1.40;;
18072;SDS011;9161;47.348;9.648;2024-03-06T17:56:10;2.47;;;1.40;;
18072;SDS011;9161;47.348;9.648;2024-03-06T18:01:13;2.73;;;1.60;;
18072;SDS011;9161;47.348;9.648;2024-03-06T18:06:20;5.40;;;1.80;;
18072;SDS011;9161;47.348;9.648;2024-03-06T18:11:22;3.27;;;1.73;;
18072;SDS011;9161;47.348;9.648;2024-03-06T18:16:25;4.60;;;1.57;;
18072;SDS011;9161;47.348;9.648;2024-03-06T18:21:29;4.93;;;1.20;;
18072;SDS011;9161;47.348;9.648;2024-03-06T18:26:31;4.47;;;1.73;;
18072;SDS011;9161;47.348;9.648;2024-03-06T18:31:33;1.63;;;1.27;;
18072;SDS011;9161;47.348;9.648;2024-03-06T18:36:40;2.63;;;1.73;;
18072;SDS011;9161;47.348;9.648;2024-03-06T18:41:47;3.60;;;1.67;;
18072;SDS011;9161;47.348;9.648;2024-03-06T18:46:51;3.27;;;1.87;;
18072;SDS011;9161;47.348;9.648;2024-03-06T18:52:05;3.90;;;1.97;;
18072;SDS011;9161;47.348;9.648;2024-03-06T18:57:22;3.90;;;2.20;;
18072;SDS011;9161;47.348;9.648;2024-03-06T19:02:25;2.87;;;1.10;;
18072;SDS011;9161;47.348;9.648;2024-03-06T19:07:29;2.70;;;1.63;;
18072;SDS011;9161;47.348;9.648;2024-03-06T19:12:32;2.60;;;1.33;;
18072;SDS011;9161;47.348;9.648;2024-03-06T19:17:35;2.20;;;1.50;;
18072;SDS011;9161;47.348;9.648;2024-03-06T19:22:41;5.00;;;1.23;;
18072;SDS011;9161;47.348;9.648;2024-03-06T19:27:48;3.20;;;1.57;;
18072;SDS011;9161;47.348;9.648;2024-03-06T19:32:53;2.57;;;1.30;;
18072;SDS011;9161;47.348;9.648;2024-03-06T19:37:57;4.90;;;2.00;;
18072;SDS011;9161;47.348;9.648;2024-03-06T19:43:00;3.30;;;1.80;;
18072;SDS011;9161;47.348;9.648;2024-03-06T19:48:03;3.57;;;1.93;;
18072;SDS011;9161;47.348;9.648;2024-03-06T19:53:08;5.40;;;2.00;;
18072;SDS011;9161;47.348;9.648;2024-03-06T19:58:11;2.83;;;1.80;;
18072;SDS011;9161;47.348;9.648;2024-03-06T20:03:15;3.73;;;1.90;;
18072;SDS011;9161;47.348;9.648;2024-03-06T20:08:21;6.20;;;2.27;;
18072;SDS011;9161;47.348;9.648;2024-03-06T20:13:25;6.00;;;2.80;;
18072;SDS011;9161;47.348;9.648;2024-03-06T20:18:27;4.97;;;2.67;;
18072;SDS011;9161;47.348;9.648;2024-03-06T20:23:36;6.27;;;2.87;;
18072;SDS011;9161;47.348;9.648;2024-03-06T20:28:43;5.07;;;2.60;;
18072;SDS011;9161;47.348;9.648;2024-03-06T20:33:48;7.47;;;3.93;;
18072;SDS011;9161;47.348;9.648;2024-03-06T20:38:53;7.50;;;4.10;;
18072;SDS011;9161;47.348;9.648;2024-03-06T20:43:56;8.80;;;3.87;;
18072;SDS011;9161;47.348;9.648;2024-03-06T20:48:58;8.13;;;3.87;;
18072;SDS011;9161;47.348;9.648;2024-03-06T20:54:03;9.57;;;3.70;;
18072;SDS011;9161;47.348;9.648;2024-03-06T20:59:07;7.43;;;3.77;;
18072;SDS011;9161;47.348;9.648;2024-03-06T21:04:10;8.50;;;3.90;;
18072;SDS011;9161;47.348;9.648;2024-03-06T21:09:17;9.50;;;4.13;;
18072;SDS011;9161;47.348;9.648;2024-03-06T21:14:23;7.00;;;3.57;;
18072;SDS011;9161;47.348;9.648;2024-03-06T21:19:25;8.40;;;4.03;;
18072;SDS011;9161;47.348;9.648;2024-03-06T21:24:29;11.17;;;4.60;;
18072;SDS011;9161;47.348;9.648;2024-03-06T21:29:33;11.67;;;5.33;;
18072;SDS011;9161;47.348;9.648;2024-03-06T21:34:37;8.80;;;4.40;;
18072;SDS011;9161;47.348;9.648;2024-03-06T21:39:44;11.03;;;4.93;;
18072;SDS011;9161;47.348;9.648;2024-03-06T21:44:46;10.33;;;4.73;;
18072;SDS011;9161;47.348;9.648;2024-03-06T21:49:49;10.63;;;5.00;;
18072;SDS011;9161;47.348;9.648;2024-03-06T21:54:52;8.40;;;4.10;;
18072;SDS011;9161;47.348;9.648;2024-03-06T21:59:55;9.23;;;4.80;;
18072;SDS011;9161;47.348;9.648;2024-03-06T22:04:57;10.23;;;4.47;;
18072;SDS011;9161;47.348;9.648;2024-03-06T22:10:01;13.80;;;5.57;;
18072;SDS011;9161;47.348;9.648;2024-03-06T22:15:08;12.33;;;6.10;;
18072;SDS011;9161;47.348;9.648;2024-03-06T22:20:11;10.17;;;5.03;;
18072;SDS011;9161;47.348;9.648;2024-03-06T22:25:15;13.07;;;5.97;;
18072;SDS011;9161;47.348;9.648;2024-03-06T22:30:18;15.87;;;6.60;;
18072;SDS011;9161;47.348;9.648;2024-03-06T22:35:20;14.50;;;6.07;;
18072;SDS011;9161;47.348;9.648;2024-03-06T22:40:24;12.73;;;5.83;;
18072;SDS011;9161;47.348;9.648;2024-03-06T22:45:27;13.67;;;5.87;;
18072;SDS011;9161;47.348;9.648;2024-03-06T22:50:29;17.93;;;5.77;;
18072;SDS011;9161;47.348;9.648;2024-03-06T22:55:33;11.73;;;4.70;;
18072;SDS011;9161;47.348;9.648;2024-03-06T23:00:35;10.20;;;4.90;;
18072;SDS011;9161;47.348;9.648;2024-03-06T23:05:39;11.70;;;5.23;;
18072;SDS011;9161;47.348;9.648;2024-03-06T23:10:43;12.30;;;5.07;;
18072;SDS011;9161;47.348;9.648;2024-03-06T23:15:45;11.30;;;5.20;;
18072;SDS011;9161;47.348;9.648;2024-03-06T23:20:48;14.13;;;5.57;;
18072;SDS011;9161;47.348;9.648;2024-03-06T23:25:52;13.27;;;5.53;;
18072;SDS011;9161;47.348;9.648;2024-03-06T23:30:55;13.73;;;5.83;;
18072;SDS011;9161;47.348;9.648;2024-03-06T23:35:56;13.90;;;5.63;;
18072;SDS011;9161;47.348;9.648;2024-03-06T23:41:00;12.60;;;5.40;;
18072;SDS011;9161;47.348;9.648;2024-03-06T23:46:03;15.37;;;6.10;;
18072;SDS011;9161;47.348;9.648;2024-03-06T23:51:05;15.50;;;6.63;;
18072;SDS011;9161;47.348;9.648;2024-03-06T23:56:08;17.90;;;7.63;;
